Advance Mills, Virginia
Current Conditions -  °F | °C
As of 3:53 AM on Wednesday 26 Nov 2014 (Local Time) from KCHO Reporting Station
Light Rain Light Rain  
Wind Chill:   Ceiling: 4400
Heat Index:   Visibility: 6mi
Dew Point:   Wind: 5mph
Humidity: 89%   Direction: 20°NNE
Pressure: 30.03"   Gusts: NA
Location:  38.2469°N, 78.3926°W
Report Text: KCHO 260853Z AUTO 02004KT 6SM -RA BR OVC044 07/05 A3003 RMK AO2 SLP168 P0006 60008 T00670050 56033
Loading
Personal Weather Stations






























Interactive Weather Map New forecast layout! Learn more

10-Day Weather Forecast

Advertisements
Track Severe Weather on mobile